EST,Max TemperatureF,Mean TemperatureF,Min TemperatureF,Max Dew PointF,MeanDew PointF,Min DewpointF,Max Humidity, Mean Humidity, Min Humidity, Max Sea Level PressureIn, Mean Sea Level PressureIn, Min Sea Level PressureIn, Max VisibilityMiles, Mean VisibilityMiles, Min VisibilityMiles, Max Wind SpeedMPH, Mean Wind SpeedMPH, Max Gust SpeedMPH,PrecipitationIn, CloudCover, Events, WindDirDegrees
2014-2-1,58,39,20,30,20,11,88,52,16,30.23,30.15,30.08,10,10,10,13,4,17,0.00,2,,151
2014-2-2,68,47,26,49,36,24,92,67,42,30.13,30.05,29.94,10,10,4,9,2,12,0.02,3,Rain,119
2014-2-3,58,48,37,55,44,34,100,83,66,30.20,29.99,29.80,10,8,2,26,11,36,0.64,6,Rain,352
2014-2-4,42,39,36,36,35,33,92,83,73,30.30,30.17,30.05,10,8,2,13,7,17,0.24,8,Rain,170
2014-2-5,59,44,28,48,36,24,100,78,55,30.13,29.93,29.82,10,8,2,29,13,38,0.25,6,Rain,102
2014-2-6,35,30,24,22,19,18,85,69,52,30.32,30.24,30.13,10,10,10,28,14,37,0.00,5,,350
2014-2-7,47,37,27,25,22,21,81,61,41,30.33,30.26,30.21,10,10,10,16,9,20,0.00,4,,345
2014-2-8,53,42,31,33,27,22,89,65,41,30.23,30.16,30.08,10,10,10,13,4,16,0.00,6,,344
2014-2-9,56,43,29,34,31,26,92,65,38,30.14,30.07,29.96,10,10,9,21,6,25,0.00,1,,343
2014-2-10,36,34,31,34,31,27,96,87,78,30.19,30.09,30.02,10,7,1,18,9,24,0.20,8,Snow,347
2014-2-11,33,31,28,29,27,25,92,85,78,30.30,30.23,30.14,10,7,2,10,3,10,T,7,Snow,176
2014-2-12,29,26,22,25,21,12,92,76,60,30.33,30.08,29.80,10,3,0,9,3,15,0.78,8,Fog-Snow,75
2014-2-13,36,32,27,29,26,22,100,85,70,29.78,29.66,29.60,10,5,2,24,10,32,0.01,7,Snow,348
2014-2-14,54,39,23,33,24,19,75,53,30,29.83,29.76,29.63,10,10,10,18,7,26,0.01,1,,294
2014-2-15,41,34,26,34,23,16,92,70,47,30.07,29.81,29.54,10,9,2,31,16,40,T,5,Rain-Snow,340
2014-2-16,54,39,23,28,24,17,96,64,32,30.13,30.07,30.00,10,10,6,15,7,22,0.00,1,,342
2014-2-17,48,38,27,33,27,26,92,69,45,30.28,30.19,30.13,10,10,10,16,7,23,T,2,,152
2014-2-18,62,46,30,33,28,19,92,57,22,30.22,30.14,30.04,10,10,9,22,5,25,0.00,1,,348
2014-2-19,72,58,43,53,43,36,100,67,34,30.07,29.99,29.93,10,8,2,16,3,23,0.18,6,Rain-Thunderstorm,335
2014-2-20,71,57,43,53,48,41,92,73,53,30.14,30.05,29.87,10,10,10,24,7,33,0.00,6,,170
2014-2-21,63,51,39,56,39,8,93,54,15,30.05,29.89,29.77,10,9,2,25,12,33,0.69,5,Rain-Thunderstorm,305
2014-2-22,62,50,38,23,18,9,48,30,12,30.19,30.10,30.05,10,10,10,14,6,18,0.00,0,,350
2014-2-23,68,50,31,32,27,21,85,53,20,30.08,30.00,29.89,10,10,10,21,4,25,0.00,0,,259
2014-2-24,52,43,33,33,24,13,82,54,26,30.13,30.06,29.93,10,10,10,22,12,29,0.00,0,,350
2014-2-25,53,42,30,25,21,16,72,50,28,30.08,30.00,29.93,10,10,10,20,9,26,0.00,3,,347
2014-2-26,42,35,27,19,17,12,55,47,38,29.93,29.86,29.78,10,10,10,29,14,35,0.00,2,,350
2014-2-27,45,33,20,11,4,-3,57,36,14,29.99,29.88,29.83,10,10,10,25,14,31,0.00,0,,348
2014-2-28,45,33,20,17,10,7,62,43,24,30.24,30.14,29.99,10,10,10,14,7,21,0.00,1,,147